sensor_id;sensor_type;location;lat;lon;timestamp;P1;durP1;ratioP1;P2;durP2;ratioP2
40621;SDS011;26324;52.040;11.528;2023-09-18T00:00:47;4.32;;;2.60;;
40621;SDS011;26324;52.040;11.528;2023-09-18T00:05:47;5.20;;;2.63;;
40621;SDS011;26324;52.040;11.528;2023-09-18T00:08:15;3.92;;;2.60;;
40621;SDS011;26324;52.040;11.528;2023-09-18T00:10:51;3.67;;;2.42;;
40621;SDS011;26324;52.040;11.528;2023-09-18T00:13:20;3.95;;;2.70;;
40621;SDS011;26324;52.040;11.528;2023-09-18T00:15:48;3.70;;;2.58;;
40621;SDS011;26324;52.040;11.528;2023-09-18T00:18:18;3.85;;;2.95;;
40621;SDS011;26324;52.040;11.528;2023-09-18T00:20:46;3.83;;;2.92;;
40621;SDS011;26324;52.040;11.528;2023-09-18T00:23:15;3.72;;;2.65;;
40621;SDS011;26324;52.040;11.528;2023-09-18T00:25:42;5.80;;;2.78;;
40621;SDS011;26324;52.040;11.528;2023-09-18T00:28:10;4.68;;;2.80;;
40621;SDS011;26324;52.040;11.528;2023-09-18T00:30:39;3.90;;;2.58;;
40621;SDS011;26324;52.040;11.528;2023-09-18T00:33:13;3.67;;;2.85;;
40621;SDS011;26324;52.040;11.528;2023-09-18T00:35:40;5.80;;;2.53;;
40621;SDS011;26324;52.040;11.528;2023-09-18T00:38:11;3.47;;;2.58;;
40621;SDS011;26324;52.040;11.528;2023-09-18T00:40:39;3.22;;;2.65;;
40621;SDS011;26324;52.040;11.528;2023-09-18T00:43:06;4.55;;;3.22;;
40621;SDS011;26324;52.040;11.528;2023-09-18T00:45:34;3.38;;;2.58;;
40621;SDS011;26324;52.040;11.528;2023-09-18T00:48:06;4.00;;;3.00;;
40621;SDS011;26324;52.040;11.528;2023-09-18T00:50:34;6.65;;;3.20;;
40621;SDS011;26324;52.040;11.528;2023-09-18T00:53:02;3.25;;;2.40;;
40621;SDS011;26324;52.040;11.528;2023-09-18T00:55:30;5.28;;;2.83;;
40621;SDS011;26324;52.040;11.528;2023-09-18T00:57:59;4.35;;;2.90;;
40621;SDS011;26324;52.040;11.528;2023-09-18T01:00:26;3.92;;;2.70;;
40621;SDS011;26324;52.040;11.528;2023-09-18T01:02:54;6.18;;;3.15;;
40621;SDS011;26324;52.040;11.528;2023-09-18T01:05:21;4.20;;;2.72;;
40621;SDS011;26324;52.040;11.528;2023-09-18T01:07:49;4.57;;;2.75;;
40621;SDS011;26324;52.040;11.528;2023-09-18T01:10:16;4.35;;;3.05;;
40621;SDS011;26324;52.040;11.528;2023-09-18T01:12:48;4.38;;;2.75;;
40621;SDS011;26324;52.040;11.528;2023-09-18T01:15:30;4.15;;;2.55;;
40621;SDS011;26324;52.040;11.528;2023-09-18T01:18:02;4.45;;;3.05;;
40621;SDS011;26324;52.040;11.528;2023-09-18T01:20:30;4.30;;;3.00;;
40621;SDS011;26324;52.040;11.528;2023-09-18T01:22:57;5.32;;;2.95;;
40621;SDS011;26324;52.040;11.528;2023-09-18T01:25:25;4.75;;;2.40;;
40621;SDS011;26324;52.040;11.528;2023-09-18T01:27:52;4.38;;;3.05;;
40621;SDS011;26324;52.040;11.528;2023-09-18T01:30:19;4.78;;;2.95;;
40621;SDS011;26324;52.040;11.528;2023-09-18T01:32:47;5.63;;;3.22;;
40621;SDS011;26324;52.040;11.528;2023-09-18T01:35:15;4.05;;;2.53;;
40621;SDS011;26324;52.040;11.528;2023-09-18T01:37:44;5.15;;;3.13;;
40621;SDS011;26324;52.040;11.528;2023-09-18T01:40:12;4.28;;;2.55;;
40621;SDS011;26324;52.040;11.528;2023-09-18T01:42:39;3.88;;;2.60;;
40621;SDS011;26324;52.040;11.528;2023-09-18T01:47:35;5.43;;;3.40;;
40621;SDS011;26324;52.040;11.528;2023-09-18T01:50:03;4.35;;;2.90;;
40621;SDS011;26324;52.040;11.528;2023-09-18T01:52:34;5.30;;;3.05;;
40621;SDS011;26324;52.040;11.528;2023-09-18T01:55:02;5.15;;;3.40;;
40621;SDS011;26324;52.040;11.528;2023-09-18T01:57:34;4.53;;;3.10;;
40621;SDS011;26324;52.040;11.528;2023-09-18T02:00:02;4.30;;;2.92;;
40621;SDS011;26324;52.040;11.528;2023-09-18T02:02:38;5.70;;;3.30;;
40621;SDS011;26324;52.040;11.528;2023-09-18T02:05:18;5.00;;;3.38;;
40621;SDS011;26324;52.040;11.528;2023-09-18T02:07:46;6.38;;;3.20;;
40621;SDS011;26324;52.040;11.528;2023-09-18T02:10:13;5.13;;;3.40;;
40621;SDS011;26324;52.040;11.528;2023-09-18T02:12:40;5.40;;;3.05;;
40621;SDS011;26324;52.040;11.528;2023-09-18T02:15:08;4.57;;;2.75;;
40621;SDS011;26324;52.040;11.528;2023-09-18T02:17:37;5.68;;;3.05;;
40621;SDS011;26324;52.040;11.528;2023-09-18T02:20:05;4.60;;;3.15;;
40621;SDS011;26324;52.040;11.528;2023-09-18T02:22:38;5.15;;;3.30;;
40621;SDS011;26324;52.040;11.528;2023-09-18T02:25:09;6.93;;;3.50;;
40621;SDS011;26324;52.040;11.528;2023-09-18T02:27:36;5.05;;;3.03;;
40621;SDS011;26324;52.040;11.528;2023-09-18T02:30:04;5.15;;;3.10;;
40621;SDS011;26324;52.040;11.528;2023-09-18T02:32:31;3.80;;;2.90;;
40621;SDS011;26324;52.040;11.528;2023-09-18T02:35:00;3.65;;;2.72;;
40621;SDS011;26324;52.040;11.528;2023-09-18T02:37:28;5.03;;;2.88;;
40621;SDS011;26324;52.040;11.528;2023-09-18T02:39:58;4.80;;;2.65;;
40621;SDS011;26324;52.040;11.528;2023-09-18T02:42:25;3.17;;;2.20;;
40621;SDS011;26324;52.040;11.528;2023-09-18T02:44:52;5.70;;;3.22;;
40621;SDS011;26324;52.040;11.528;2023-09-18T02:47:20;5.15;;;3.42;;
40621;SDS011;26324;52.040;11.528;2023-09-18T02:49:47;5.78;;;3.28;;
40621;SDS011;26324;52.040;11.528;2023-09-18T02:52:15;3.88;;;2.53;;
40621;SDS011;26324;52.040;11.528;2023-09-18T02:54:42;3.75;;;2.72;;
40621;SDS011;26324;52.040;11.528;2023-09-18T02:57:10;4.60;;;2.80;;
40621;SDS011;26324;52.040;11.528;2023-09-18T02:59:37;3.85;;;2.70;;
40621;SDS011;26324;52.040;11.528;2023-09-18T03:02:05;7.15;;;3.13;;
40621;SDS011;26324;52.040;11.528;2023-09-18T03:04:32;5.43;;;3.30;;
40621;SDS011;26324;52.040;11.528;2023-09-18T03:07:01;4.97;;;2.50;;
40621;SDS011;26324;52.040;11.528;2023-09-18T03:09:29;5.50;;;2.95;;
40621;SDS011;26324;52.040;11.528;2023-09-18T03:11:56;4.85;;;2.78;;
40621;SDS011;26324;52.040;11.528;2023-09-18T03:14:24;4.43;;;2.92;;
40621;SDS011;26324;52.040;11.528;2023-09-18T03:16:52;5.60;;;3.03;;
40621;SDS011;26324;52.040;11.528;2023-09-18T03:19:19;6.10;;;3.20;;
40621;SDS011;26324;52.040;11.528;2023-09-18T03:21:49;5.53;;;2.72;;
40621;SDS011;26324;52.040;11.528;2023-09-18T03:24:17;5.22;;;3.15;;
40621;SDS011;26324;52.040;11.528;2023-09-18T03:26:44;4.53;;;2.80;;
40621;SDS011;26324;52.040;11.528;2023-09-18T03:29:12;5.50;;;3.40;;
40621;SDS011;26324;52.040;11.528;2023-09-18T03:31:39;3.33;;;2.75;;
40621;SDS011;26324;52.040;11.528;2023-09-18T03:34:07;8.52;;;2.83;;
40621;SDS011;26324;52.040;11.528;2023-09-18T03:36:35;4.43;;;3.05;;
40621;SDS011;26324;52.040;11.528;2023-09-18T03:39:04;8.32;;;2.83;;
40621;SDS011;26324;52.040;11.528;2023-09-18T03:41:32;4.90;;;3.42;;
40621;SDS011;26324;52.040;11.528;2023-09-18T03:44:01;4.43;;;2.67;;
40621;SDS011;26324;52.040;11.528;2023-09-18T03:46:29;4.57;;;2.95;;
40621;SDS011;26324;52.040;11.528;2023-09-18T03:48:57;4.88;;;3.05;;
40621;SDS011;26324;52.040;11.528;2023-09-18T03:51:25;4.60;;;2.60;;
40621;SDS011;26324;52.040;11.528;2023-09-18T03:53:52;3.83;;;2.75;;
40621;SDS011;26324;52.040;11.528;2023-09-18T03:56:19;4.53;;;3.13;;
40621;SDS011;26324;52.040;11.528;2023-09-18T03:58:47;5.15;;;2.95;;
40621;SDS011;26324;52.040;11.528;2023-09-18T04:01:16;5.90;;;3.33;;
40621;SDS011;26324;52.040;11.528;2023-09-18T04:03:45;5.57;;;3.70;;
40621;SDS011;26324;52.040;11.528;2023-09-18T04:06:12;5.95;;;3.17;;
40621;SDS011;26324;52.040;11.528;2023-09-18T04:08:40;4.70;;;3.10;;
40621;SDS011;26324;52.040;11.528;2023-09-18T04:11:07;6.55;;;3.53;;
40621;SDS011;26324;52.040;11.528;2023-09-18T04:16:04;8.27;;;3.22;;
40621;SDS011;26324;52.040;11.528;2023-09-18T04:18:32;6.15;;;3.60;;
40621;SDS011;26324;52.040;11.528;2023-09-18T04:21:00;5.15;;;3.47;;
40621;SDS011;26324;52.040;11.528;2023-09-18T04:23:28;6.75;;;3.80;;
40621;SDS011;26324;52.040;11.528;2023-09-18T04:25:55;4.32;;;3.13;;
40621;SDS011;26324;52.040;11.528;2023-09-18T04:28:25;7.28;;;3.65;;
40621;SDS011;26324;52.040;11.528;2023-09-18T04:30:52;7.95;;;3.65;;
40621;SDS011;26324;52.040;11.528;2023-09-18T04:33:21;7.75;;;3.47;;
40621;SDS011;26324;52.040;11.528;2023-09-18T04:35:49;8.32;;;3.70;;
40621;SDS011;26324;52.040;11.528;2023-09-18T04:38:17;5.10;;;3.22;;
40621;SDS011;26324;52.040;11.528;2023-09-18T04:40:46;6.47;;;3.80;;
40621;SDS011;26324;52.040;11.528;2023-09-18T04:43:14;4.88;;;3.40;;
40621;SDS011;26324;52.040;11.528;2023-09-18T04:45:42;7.30;;;3.28;;
40621;SDS011;26324;52.040;11.528;2023-09-18T04:48:10;7.07;;;4.05;;
40621;SDS011;26324;52.040;11.528;2023-09-18T04:50:38;6.13;;;3.92;;
40621;SDS011;26324;52.040;11.528;2023-09-18T04:53:06;6.43;;;3.72;;
40621;SDS011;26324;52.040;11.528;2023-09-18T04:55:34;7.68;;;3.72;;
40621;SDS011;26324;52.040;11.528;2023-09-18T04:58:01;7.28;;;3.67;;
40621;SDS011;26324;52.040;11.528;2023-09-18T05:00:31;6.35;;;3.85;;
40621;SDS011;26324;52.040;11.528;2023-09-18T05:03:00;5.38;;;3.40;;
40621;SDS011;26324;52.040;11.528;2023-09-18T05:05:30;5.95;;;3.85;;
40621;SDS011;26324;52.040;11.528;2023-09-18T05:07:58;7.55;;;3.47;;
40621;SDS011;26324;52.040;11.528;2023-09-18T05:10:25;6.97;;;3.95;;
40621;SDS011;26324;52.040;11.528;2023-09-18T05:12:53;5.78;;;3.85;;
40621;SDS011;26324;52.040;11.528;2023-09-18T05:15:26;6.30;;;3.88;;
40621;SDS011;26324;52.040;11.528;2023-09-18T05:17:57;6.05;;;3.65;;
40621;SDS011;26324;52.040;11.528;2023-09-18T05:20:30;7.70;;;3.88;;
40621;SDS011;26324;52.040;11.528;2023-09-18T05:22:58;5.47;;;3.90;;
40621;SDS011;26324;52.040;11.528;2023-09-18T05:25:28;5.35;;;3.75;;
40621;SDS011;26324;52.040;11.528;2023-09-18T05:27:59;6.00;;;4.07;;
40621;SDS011;26324;52.040;11.528;2023-09-18T05:30:32;5.90;;;3.45;;
40621;SDS011;26324;52.040;11.528;2023-09-18T05:33:07;6.80;;;3.25;;
40621;SDS011;26324;52.040;11.528;2023-09-18T05:38:10;6.10;;;3.55;;
40621;SDS011;26324;52.040;11.528;2023-09-18T05:40:40;5.35;;;3.78;;
40621;SDS011;26324;52.040;11.528;2023-09-18T05:43:08;5.20;;;3.45;;
40621;SDS011;26324;52.040;11.528;2023-09-18T05:45:37;5.68;;;2.95;;
40621;SDS011;26324;52.040;11.528;2023-09-18T05:48:05;5.80;;;2.97;;
40621;SDS011;26324;52.040;11.528;2023-09-18T05:50:34;6.78;;;3.90;;
40621;SDS011;26324;52.040;11.528;2023-09-18T05:53:05;4.78;;;3.38;;
40621;SDS011;26324;52.040;11.528;2023-09-18T05:55:33;4.47;;;3.20;;
40621;SDS011;26324;52.040;11.528;2023-09-18T05:58:02;5.50;;;3.70;;
40621;SDS011;26324;52.040;11.528;2023-09-18T06:00:31;5.50;;;3.42;;
40621;SDS011;26324;52.040;11.528;2023-09-18T06:03:00;5.93;;;3.28;;
40621;SDS011;26324;52.040;11.528;2023-09-18T06:05:28;4.85;;;3.08;;
40621;SDS011;26324;52.040;11.528;2023-09-18T06:07:59;3.13;;;2.75;;
40621;SDS011;26324;52.040;11.528;2023-09-18T06:10:28;5.40;;;3.13;;
40621;SDS011;26324;52.040;11.528;2023-09-18T06:12:55;5.80;;;3.42;;
40621;SDS011;26324;52.040;11.528;2023-09-18T06:15:23;4.53;;;3.17;;
40621;SDS011;26324;52.040;11.528;2023-09-18T06:17:50;5.55;;;3.25;;
40621;SDS011;26324;52.040;11.528;2023-09-18T06:20:17;5.03;;;3.40;;
40621;SDS011;26324;52.040;11.528;2023-09-18T06:22:45;4.45;;;3.22;;
40621;SDS011;26324;52.040;11.528;2023-09-18T06:25:12;5.95;;;3.40;;
40621;SDS011;26324;52.040;11.528;2023-09-18T06:27:41;4.88;;;3.03;;
40621;SDS011;26324;52.040;11.528;2023-09-18T06:30:09;5.28;;;3.40;;
40621;SDS011;26324;52.040;11.528;2023-09-18T06:32:37;4.88;;;3.22;;
40621;SDS011;26324;52.040;11.528;2023-09-18T06:35:04;4.57;;;3.15;;
40621;SDS011;26324;52.040;11.528;2023-09-18T06:37:32;4.00;;;2.90;;
40621;SDS011;26324;52.040;11.528;2023-09-18T06:40:01;6.60;;;3.40;;
40621;SDS011;26324;52.040;11.528;2023-09-18T06:42:31;4.07;;;3.00;;
40621;SDS011;26324;52.040;11.528;2023-09-18T06:45:01;4.30;;;3.22;;
40621;SDS011;26324;52.040;11.528;2023-09-18T06:47:28;4.53;;;2.83;;
40621;SDS011;26324;52.040;11.528;2023-09-18T06:49:56;3.83;;;2.50;;
40621;SDS011;26324;52.040;11.528;2023-09-18T06:52:24;4.57;;;2.97;;
40621;SDS011;26324;52.040;11.528;2023-09-18T06:54:53;5.55;;;2.60;;
40621;SDS011;26324;52.040;11.528;2023-09-18T06:57:21;3.55;;;2.75;;
40621;SDS011;26324;52.040;11.528;2023-09-18T06:59:48;5.57;;;3.20;;
40621;SDS011;26324;52.040;11.528;2023-09-18T07:02:15;4.50;;;2.60;;
40621;SDS011;26324;52.040;11.528;2023-09-18T07:04:43;4.88;;;3.10;;
40621;SDS011;26324;52.040;11.528;2023-09-18T07:07:14;5.18;;;3.30;;
40621;SDS011;26324;52.040;11.528;2023-09-18T07:09:42;3.40;;;2.85;;
40621;SDS011;26324;52.040;11.528;2023-09-18T07:12:13;4.18;;;2.42;;
40621;SDS011;26324;52.040;11.528;2023-09-18T07:14:40;3.45;;;2.60;;
40621;SDS011;26324;52.040;11.528;2023-09-18T07:17:08;4.00;;;2.47;;
40621;SDS011;26324;52.040;11.528;2023-09-18T07:19:35;4.22;;;2.53;;
40621;SDS011;26324;52.040;11.528;2023-09-18T07:22:03;3.85;;;2.45;;
40621;SDS011;26324;52.040;11.528;2023-09-18T07:24:30;3.95;;;2.80;;
40621;SDS011;26324;52.040;11.528;2023-09-18T07:26:58;3.88;;;2.53;;
40621;SDS011;26324;52.040;11.528;2023-09-18T07:31:54;4.03;;;2.72;;
40621;SDS011;26324;52.040;11.528;2023-09-18T07:34:21;3.70;;;2.53;;
40621;SDS011;26324;52.040;11.528;2023-09-18T07:36:49;3.42;;;2.55;;
40621;SDS011;26324;52.040;11.528;2023-09-18T07:39:21;4.85;;;2.90;;
40621;SDS011;26324;52.040;11.528;2023-09-18T07:41:48;4.53;;;2.70;;
40621;SDS011;26324;52.040;11.528;2023-09-18T07:44:19;3.40;;;2.33;;
40621;SDS011;26324;52.040;11.528;2023-09-18T07:46:47;4.57;;;2.60;;
40621;SDS011;26324;52.040;11.528;2023-09-18T07:49:17;4.70;;;2.90;;
40621;SDS011;26324;52.040;11.528;2023-09-18T07:51:44;7.30;;;2.70;;
40621;SDS011;26324;52.040;11.528;2023-09-18T07:54:14;2.80;;;2.17;;
40621;SDS011;26324;52.040;11.528;2023-09-18T07:56:42;5.05;;;3.03;;
40621;SDS011;26324;52.040;11.528;2023-09-18T07:59:10;4.55;;;2.70;;
40621;SDS011;26324;52.040;11.528;2023-09-18T08:01:38;3.80;;;2.42;;
40621;SDS011;26324;52.040;11.528;2023-09-18T08:04:05;5.15;;;2.22;;
40621;SDS011;26324;52.040;11.528;2023-09-18T08:06:33;3.65;;;2.35;;
40621;SDS011;26324;52.040;11.528;2023-09-18T08:09:01;4.80;;;2.65;;
40621;SDS011;26324;52.040;11.528;2023-09-18T08:11:28;4.10;;;2.28;;
40621;SDS011;26324;52.040;11.528;2023-09-18T08:13:55;2.45;;;2.03;;
40621;SDS011;26324;52.040;11.528;2023-09-18T08:16:23;4.10;;;2.50;;
40621;SDS011;26324;52.040;11.528;2023-09-18T08:18:50;3.97;;;2.15;;
40621;SDS011;26324;52.040;11.528;2023-09-18T08:21:20;3.67;;;2.38;;
40621;SDS011;26324;52.040;11.528;2023-09-18T08:23:50;4.05;;;2.42;;
40621;SDS011;26324;52.040;11.528;2023-09-18T08:26:17;4.20;;;2.40;;
40621;SDS011;26324;52.040;11.528;2023-09-18T08:28:45;4.60;;;2.50;;
40621;SDS011;26324;52.040;11.528;2023-09-18T08:31:12;5.82;;;2.70;;
40621;SDS011;26324;52.040;11.528;2023-09-18T08:33:41;3.53;;;2.00;;
40621;SDS011;26324;52.040;11.528;2023-09-18T08:36:09;7.47;;;2.30;;
40621;SDS011;26324;52.040;11.528;2023-09-18T08:38:36;2.45;;;2.22;;
40621;SDS011;26324;52.040;11.528;2023-09-18T08:41:04;4.10;;;2.30;;
40621;SDS011;26324;52.040;11.528;2023-09-18T08:43:32;3.25;;;2.88;;
40621;SDS011;26324;52.040;11.528;2023-09-18T08:48:29;3.72;;;1.80;;
40621;SDS011;26324;52.040;11.528;2023-09-18T08:51:02;5.20;;;2.53;;
40621;SDS011;26324;52.040;11.528;2023-09-18T08:53:32;3.13;;;2.58;;
40621;SDS011;26324;52.040;11.528;2023-09-18T08:56:02;3.63;;;2.75;;
40621;SDS011;26324;52.040;11.528;2023-09-18T08:58:31;7.03;;;2.58;;
40621;SDS011;26324;52.040;11.528;2023-09-18T09:01:03;4.50;;;2.78;;
40621;SDS011;26324;52.040;11.528;2023-09-18T09:03:33;3.28;;;2.38;;
40621;SDS011;26324;52.040;11.528;2023-09-18T09:06:01;3.67;;;2.33;;
40621;SDS011;26324;52.040;11.528;2023-09-18T09:08:29;3.95;;;2.25;;
40621;SDS011;26324;52.040;11.528;2023-09-18T09:10:57;2.42;;;2.00;;
40621;SDS011;26324;52.040;11.528;2023-09-18T09:13:25;3.22;;;2.40;;
40621;SDS011;26324;52.040;11.528;2023-09-18T09:18:47;3.30;;;2.58;;
40621;SDS011;26324;52.040;11.528;2023-09-18T09:21:16;3.60;;;2.20;;
40621;SDS011;26324;52.040;11.528;2023-09-18T09:23:45;4.63;;;2.53;;
40621;SDS011;26324;52.040;11.528;2023-09-18T09:26:23;5.43;;;2.33;;
40621;SDS011;26324;52.040;11.528;2023-09-18T09:28:51;4.63;;;2.38;;
40621;SDS011;26324;52.040;11.528;2023-09-18T09:31:26;3.67;;;2.25;;
40621;SDS011;26324;52.040;11.528;2023-09-18T09:33:56;3.55;;;2.17;;
40621;SDS011;26324;52.040;11.528;2023-09-18T09:36:24;4.35;;;2.28;;
40621;SDS011;26324;52.040;11.528;2023-09-18T09:38:55;3.63;;;2.47;;
40621;SDS011;26324;52.040;11.528;2023-09-18T09:43:57;3.88;;;2.72;;
40621;SDS011;26324;52.040;11.528;2023-09-18T09:46:25;2.80;;;2.58;;
40621;SDS011;26324;52.040;11.528;2023-09-18T09:49:02;4.95;;;2.83;;
40621;SDS011;26324;52.040;11.528;2023-09-18T09:51:32;3.60;;;2.50;;
40621;SDS011;26324;52.040;11.528;2023-09-18T09:54:01;4.20;;;3.30;;
40621;SDS011;26324;52.040;11.528;2023-09-18T09:56:45;6.28;;;3.13;;
40621;SDS011;26324;52.040;11.528;2023-09-18T09:59:15;3.65;;;2.65;;
40621;SDS011;26324;52.040;11.528;2023-09-18T10:01:42;3.92;;;2.83;;
40621;SDS011;26324;52.040;11.528;2023-09-18T10:04:16;3.95;;;2.75;;
40621;SDS011;26324;52.040;11.528;2023-09-18T10:06:51;3.97;;;2.47;;
40621;SDS011;26324;52.040;11.528;2023-09-18T10:09:23;3.88;;;2.97;;
40621;SDS011;26324;52.040;11.528;2023-09-18T10:11:54;4.25;;;2.83;;
40621;SDS011;26324;52.040;11.528;2023-09-18T10:14:32;3.55;;;2.95;;
40621;SDS011;26324;52.040;11.528;2023-09-18T10:17:24;6.68;;;2.88;;
40621;SDS011;26324;52.040;11.528;2023-09-18T10:19:57;4.18;;;2.72;;
40621;SDS011;26324;52.040;11.528;2023-09-18T10:22:52;4.00;;;3.00;;
40621;SDS011;26324;52.040;11.528;2023-09-18T10:25:21;6.38;;;2.63;;
40621;SDS011;26324;52.040;11.528;2023-09-18T10:27:51;5.18;;;2.55;;
40621;SDS011;26324;52.040;11.528;2023-09-18T10:30:25;4.50;;;2.63;;
40621;SDS011;26324;52.040;11.528;2023-09-18T10:32:53;4.50;;;2.60;;
40621;SDS011;26324;52.040;11.528;2023-09-18T10:35:23;4.25;;;2.90;;
40621;SDS011;26324;52.040;11.528;2023-09-18T10:37:50;4.88;;;2.70;;
40621;SDS011;26324;52.040;11.528;2023-09-18T10:40:21;10.10;;;4.32;;
40621;SDS011;26324;52.040;11.528;2023-09-18T10:42:51;4.90;;;2.90;;
40621;SDS011;26324;52.040;11.528;2023-09-18T10:45:21;3.83;;;2.80;;
40621;SDS011;26324;52.040;11.528;2023-09-18T10:47:48;4.97;;;2.50;;
40621;SDS011;26324;52.040;11.528;2023-09-18T10:50:24;5.05;;;2.38;;
40621;SDS011;26324;52.040;11.528;2023-09-18T10:52:52;2.30;;;1.90;;
40621;SDS011;26324;52.040;11.528;2023-09-18T10:55:21;3.65;;;1.80;;
40621;SDS011;26324;52.040;11.528;2023-09-18T11:00:19;3.95;;;1.80;;
40621;SDS011;26324;52.040;11.528;2023-09-18T11:02:52;6.38;;;1.80;;
40621;SDS011;26324;52.040;11.528;2023-09-18T11:05:28;5.60;;;1.80;;
40621;SDS011;26324;52.040;11.528;2023-09-18T11:13:33;3.13;;;2.00;;
40621;SDS011;26324;52.040;11.528;2023-09-18T11:16:03;4.85;;;1.83;;
40621;SDS011;26324;52.040;11.528;2023-09-18T11:19:08;2.60;;;1.75;;
40621;SDS011;26324;52.040;11.528;2023-09-18T11:21:35;2.50;;;1.77;;
40621;SDS011;26324;52.040;11.528;2023-09-18T11:26:50;2.47;;;1.48;;
40621;SDS011;26324;52.040;11.528;2023-09-18T11:29:22;4.03;;;1.58;;
40621;SDS011;26324;52.040;11.528;2023-09-18T11:31:51;3.13;;;1.70;;
40621;SDS011;26324;52.040;11.528;2023-09-18T11:34:25;4.57;;;1.40;;
40621;SDS011;26324;52.040;11.528;2023-09-18T11:36:55;4.88;;;2.38;;
40621;SDS011;26324;52.040;11.528;2023-09-18T11:39:33;2.88;;;1.45;;
40621;SDS011;26324;52.040;11.528;2023-09-18T11:42:11;3.20;;;1.23;;
40621;SDS011;26324;52.040;11.528;2023-09-18T11:44:46;1.40;;;1.20;;
40621;SDS011;26324;52.040;11.528;2023-09-18T11:47:18;4.28;;;1.65;;
40621;SDS011;26324;52.040;11.528;2023-09-18T11:52:17;3.05;;;1.38;;
40621;SDS011;26324;52.040;11.528;2023-09-18T11:54:47;2.55;;;1.27;;
40621;SDS011;26324;52.040;11.528;2023-09-18T11:57:15;4.18;;;1.40;;
40621;SDS011;26324;52.040;11.528;2023-09-18T11:59:45;4.43;;;1.58;;
40621;SDS011;26324;52.040;11.528;2023-09-18T12:02:14;3.03;;;1.52;;
40621;SDS011;26324;52.040;11.528;2023-09-18T12:05:13;2.13;;;1.23;;
40621;SDS011;26324;52.040;11.528;2023-09-18T12:07:43;2.42;;;1.33;;
40621;SDS011;26324;52.040;11.528;2023-09-18T12:10:13;2.95;;;1.67;;
40621;SDS011;26324;52.040;11.528;2023-09-18T12:12:44;3.08;;;1.45;;
40621;SDS011;26324;52.040;11.528;2023-09-18T12:15:12;3.60;;;1.42;;
40621;SDS011;26324;52.040;11.528;2023-09-18T12:17:42;3.55;;;1.15;;
40621;SDS011;26324;52.040;11.528;2023-09-18T12:20:16;3.95;;;2.42;;
40621;SDS011;26324;52.040;11.528;2023-09-18T12:22:48;6.85;;;2.03;;
40621;SDS011;26324;52.040;11.528;2023-09-18T12:25:17;4.72;;;1.30;;
40621;SDS011;26324;52.040;11.528;2023-09-18T12:30:13;2.92;;;1.40;;
40621;SDS011;26324;52.040;11.528;2023-09-18T12:32:49;2.30;;;1.40;;
40621;SDS011;26324;52.040;11.528;2023-09-18T12:35:20;3.67;;;1.17;;
40621;SDS011;26324;52.040;11.528;2023-09-18T12:37:48;2.38;;;1.13;;
40621;SDS011;26324;52.040;11.528;2023-09-18T12:42:50;4.18;;;1.85;;
40621;SDS011;26324;52.040;11.528;2023-09-18T12:45:20;3.13;;;1.40;;
40621;SDS011;26324;52.040;11.528;2023-09-18T12:47:49;2.22;;;1.33;;
40621;SDS011;26324;52.040;11.528;2023-09-18T12:50:18;3.28;;;1.30;;
40621;SDS011;26324;52.040;11.528;2023-09-18T12:52:45;3.95;;;1.30;;
40621;SDS011;26324;52.040;11.528;2023-09-18T12:55:23;4.20;;;1.13;;
40621;SDS011;26324;52.040;11.528;2023-09-18T12:57:52;2.17;;;1.20;;
40621;SDS011;26324;52.040;11.528;2023-09-18T13:00:21;5.70;;;1.25;;
40621;SDS011;26324;52.040;11.528;2023-09-18T13:02:54;6.95;;;1.42;;
40621;SDS011;26324;52.040;11.528;2023-09-18T13:05:24;3.92;;;1.60;;
40621;SDS011;26324;52.040;11.528;2023-09-18T13:07:53;3.70;;;1.10;;
40621;SDS011;26324;52.040;11.528;2023-09-18T13:10:22;4.40;;;1.10;;
40621;SDS011;26324;52.040;11.528;2023-09-18T13:12:54;3.40;;;1.20;;
40621;SDS011;26324;52.040;11.528;2023-09-18T13:15:29;2.50;;;0.90;;
40621;SDS011;26324;52.040;11.528;2023-09-18T13:17:58;3.25;;;1.10;;
40621;SDS011;26324;52.040;11.528;2023-09-18T13:20:28;3.33;;;1.20;;
40621;SDS011;26324;52.040;11.528;2023-09-18T13:22:57;4.30;;;1.35;;
40621;SDS011;26324;52.040;11.528;2023-09-18T13:25:35;3.58;;;1.55;;
40621;SDS011;26324;52.040;11.528;2023-09-18T13:28:05;4.93;;;1.45;;
40621;SDS011;26324;52.040;11.528;2023-09-18T13:30:35;3.78;;;0.95;;
40621;SDS011;26324;52.040;11.528;2023-09-18T13:33:07;3.50;;;1.05;;
40621;SDS011;26324;52.040;11.528;2023-09-18T13:35:37;2.65;;;1.00;;
40621;SDS011;26324;52.040;11.528;2023-09-18T13:38:06;5.53;;;1.45;;
40621;SDS011;26324;52.040;11.528;2023-09-18T13:40:35;3.40;;;1.35;;
40621;SDS011;26324;52.040;11.528;2023-09-18T13:43:04;6.63;;;1.00;;
40621;SDS011;26324;52.040;11.528;2023-09-18T13:45:32;2.75;;;0.90;;
40621;SDS011;26324;52.040;11.528;2023-09-18T13:48:02;2.70;;;1.20;;
40621;SDS011;26324;52.040;11.528;2023-09-18T13:50:31;1.50;;;0.90;;
40621;SDS011;26324;52.040;11.528;2023-09-18T13:53:00;4.07;;;1.10;;
40621;SDS011;26324;52.040;11.528;2023-09-18T13:55:30;4.63;;;1.05;;
40621;SDS011;26324;52.040;11.528;2023-09-18T13:57:58;3.10;;;1.08;;
40621;SDS011;26324;52.040;11.528;2023-09-18T14:00:26;2.78;;;0.82;;
40621;SDS011;26324;52.040;11.528;2023-09-18T14:02:54;3.75;;;0.88;;
40621;SDS011;26324;52.040;11.528;2023-09-18T14:05:22;2.92;;;1.00;;
40621;SDS011;26324;52.040;11.528;2023-09-18T14:07:50;3.65;;;1.02;;
40621;SDS011;26324;52.040;11.528;2023-09-18T14:10:18;1.63;;;0.90;;
40621;SDS011;26324;52.040;11.528;2023-09-18T14:12:48;1.88;;;0.82;;
40621;SDS011;26324;52.040;11.528;2023-09-18T14:15:17;3.42;;;1.00;;
40621;SDS011;26324;52.040;11.528;2023-09-18T14:17:45;3.75;;;1.13;;
40621;SDS011;26324;52.040;11.528;2023-09-18T14:20:13;3.00;;;1.00;;
40621;SDS011;26324;52.040;11.528;2023-09-18T14:22:41;3.97;;;0.90;;
40621;SDS011;26324;52.040;11.528;2023-09-18T14:25:09;3.30;;;0.98;;
40621;SDS011;26324;52.040;11.528;2023-09-18T14:27:38;2.15;;;1.00;;
40621;SDS011;26324;52.040;11.528;2023-09-18T14:30:06;3.13;;;1.10;;
40621;SDS011;26324;52.040;11.528;2023-09-18T14:32:35;2.08;;;0.82;;
40621;SDS011;26324;52.040;11.528;2023-09-18T14:35:04;4.78;;;1.15;;
40621;SDS011;26324;52.040;11.528;2023-09-18T14:37:35;4.00;;;1.30;;
40621;SDS011;26324;52.040;11.528;2023-09-18T14:40:03;4.70;;;0.95;;
40621;SDS011;26324;52.040;11.528;2023-09-18T14:42:31;3.83;;;1.20;;
40621;SDS011;26324;52.040;11.528;2023-09-18T14:45:00;2.72;;;0.95;;
40621;SDS011;26324;52.040;11.528;2023-09-18T14:49:56;3.67;;;1.20;;
40621;SDS011;26324;52.040;11.528;2023-09-18T14:52:25;1.90;;;1.13;;
40621;SDS011;26324;52.040;11.528;2023-09-18T14:54:53;3.45;;;0.90;;
40621;SDS011;26324;52.040;11.528;2023-09-18T14:57:20;2.13;;;0.90;;
40621;SDS011;26324;52.040;11.528;2023-09-18T14:59:48;5.30;;;1.30;;
40621;SDS011;26324;52.040;11.528;2023-09-18T15:02:16;4.85;;;0.82;;
40621;SDS011;26324;52.040;11.528;2023-09-18T15:04:45;2.13;;;0.90;;
40621;SDS011;26324;52.040;11.528;2023-09-18T15:07:13;3.50;;;1.13;;
40621;SDS011;26324;52.040;11.528;2023-09-18T15:09:40;1.67;;;0.80;;
40621;SDS011;26324;52.040;11.528;2023-09-18T15:12:08;4.18;;;1.00;;
40621;SDS011;26324;52.040;11.528;2023-09-18T15:14:38;3.40;;;1.20;;
40621;SDS011;26324;52.040;11.528;2023-09-18T15:17:05;5.55;;;1.13;;
40621;SDS011;26324;52.040;11.528;2023-09-18T15:19:35;3.20;;;1.23;;
40621;SDS011;26324;52.040;11.528;2023-09-18T15:22:02;3.22;;;0.98;;
40621;SDS011;26324;52.040;11.528;2023-09-18T15:24:30;1.35;;;0.63;;
40621;SDS011;26324;52.040;11.528;2023-09-18T15:26:57;3.53;;;1.08;;